Time;durP1;ratioP1;P1;durP2;ratioP2;P2;SDS_P1;SDS_P2;PMS_P1;PMS_P2;Temp;Humidity;BMP_temperature;BMP_pressure;BME280_temperature;BME280_humidity;BME280_pressure;Samples;Min_cycle;Max_cycle;Signal;HPM_P1;HPM_P2
2021/05/28 00:01:37;;;;;;;;;;;;;;;;;;5051839;28;20045;-69
2021/05/28 00:04:03;;;;;;;;;;;;;;;;;;5052309;28;19928;-69
2021/05/28 00:06:30;;;;;;;;;;;;;;;;;;5051769;28;19940;-68
2021/05/28 00:08:56;;;;;;;;;;;;;;;;;;5051914;28;20288;-69
2021/05/28 00:11:23;;;;;;;;;;;;;;;;;;5051601;28;19929;-69
2021/05/28 00:13:49;;;;;;;;;;;;;;;;;;5052195;28;20312;-69
2021/05/28 00:16:16;;;;;;;;;;;;;;;;;;5051875;28;19925;-69
2021/05/28 00:18:42;;;;;;;;;;;;;;;;;;5052187;28;20388;-69
2021/05/28 00:21:09;;;;;;;;;;;;;;;;;;5052208;28;19971;-68
2021/05/28 00:23:35;;;;;;;;;;;;;;;;;;5053789;28;20315;-69
2021/05/28 00:26:02;;;;;;;;;;;;;;;;;;5052088;28;20016;-69
2021/05/28 00:28:28;;;;;;;;;;;;;;;;;;5051220;28;19947;-67
2021/05/28 00:30:55;;;;;;;;;;;;;;;;;;5051821;28;19932;-67
2021/05/28 00:33:21;;;;;;;;;;;;;;;;;;5051772;28;20024;-69
2021/05/28 00:35:48;;;;;;;;;;;;;;;;;;5051735;28;19931;-69
2021/05/28 00:38:14;;;;;;;;;;;;;;;;;;5051162;28;19940;-69
2021/05/28 00:40:41;;;;;;;;;;;;;;;;;;5044179;28;19963;-69
2021/05/28 00:43:07;;;;;;;;;;;;;;;;;;5051060;28;20392;-69
2021/05/28 00:45:34;;;;;;;;;;;;;;;;;;5051669;28;20015;-69
2021/05/28 00:48:00;;;;;;;;;;;;;;;;;;5050964;28;20288;-68
2021/05/28 00:50:29;;;;;;;;;;;;;;;;;;5050995;28;19979;-70
2021/05/28 00:52:56;;;;;;;;;;;;;;;;;;5051439;28;19928;-68
2021/05/28 00:55:23;;;;;;;;;;;;;;;;;;5051972;28;20070;-68
2021/05/28 00:57:49;;;;;;;;;;;;;;;;;;5051064;28;20396;-68
2021/05/28 01:00:16;;;;;;;;;;;;;;;;;;5051207;28;19925;-68
2021/05/28 01:02:42;;;;;;;;;;;;;;;;;;5051333;28;19925;-67
2021/05/28 01:05:09;;;;;;;;;;;;;;;;;;5051259;28;20032;-68
2021/05/28 01:07:35;;;;;;;;;;;;;;;;;;5051184;28;19933;-69
2021/05/28 01:10:02;;;;;;;;;;;;;;;;;;5051140;28;19925;-68
2021/05/28 01:12:29;;;;;;;;;;;;;;;;;;5051289;28;19925;-68
2021/05/28 01:14:55;;;;;;;;;;;;;;;;;;5051910;28;19925;-69
2021/05/28 01:17:22;;;;;;;;;;;;;;;;;;5052289;28;19924;-68
2021/05/28 01:19:48;;;;;;;;;;;;;;;;;;5054073;28;20027;-68
2021/05/28 01:22:18;;;;;;;;;;;;;;;;;;5050838;28;19925;-68
2021/05/28 01:24:45;;;;;;;;;;;;;;;;;;5051130;28;19925;-68
2021/05/28 01:27:11;;;;;;;;;;;;;;;;;;5050676;28;19968;-68
2021/05/28 01:29:38;;;;;;;;;;;;;;;;;;5051074;28;19929;-70
2021/05/28 01:32:04;;;;;;;;;;;;;;;;;;5042027;28;19931;-68
2021/05/28 01:34:31;;;;;;;;;;;;;;;;;;5051211;28;20020;-69
2021/05/28 01:36:57;;;;;;;;;;;;;;;;;;5050828;28;20342;-68
2021/05/28 01:39:24;;;;;;;;;;;;;;;;;;5050816;28;19981;-68
2021/05/28 01:41:50;;;;;;;;;;;;;;;;;;5050832;28;19979;-68
2021/05/28 01:44:17;;;;;;;;;;;;;;;;;;5050654;28;19943;-68
2021/05/28 01:46:44;;;;;;;;;;;;;;;;;;5051174;28;19975;-68
2021/05/28 01:49:10;;;;;;;;;;;;;;;;;;5050751;28;19971;-69
2021/05/28 01:51:37;;;;;;;;;;;;;;;;;;5050869;28;19925;-68
2021/05/28 01:54:03;;;;;;;;;;;;;;;;;;5050648;28;19983;-69
2021/05/28 01:56:30;;;;;;;;;;;;;;;;;;5050170;28;19931;-67
2021/05/28 01:58:56;;;;;;;;;;;;;;;;;;5051018;28;19931;-67
2021/05/28 02:01:23;;;;;;;;;;;;;;;;;;5053924;28;19936;-67
2021/05/28 02:03:49;;;;;;;;;;;;;;;;;;5054590;28;19925;-67
2021/05/28 02:06:16;;;;;;;;;;;;;;;;;;5054605;28;19925;-67
2021/05/28 02:08:42;;;;;;;;;;;;;;;;;;5054133;28;20019;-67
2021/05/28 02:11:08;;;;;;;;;;;;;;;;;;5054676;28;20385;-66
2021/05/28 02:13:35;;;;;;;;;;;;;;;;;;5054415;28;19982;-68
2021/05/28 02:16:01;;;;;;;;;;;;;;;;;;5054402;28;19925;-67
2021/05/28 02:18:28;;;;;;;;;;;;;;;;;;5062187;28;19969;-68
2021/05/28 02:20:54;;;;;;;;;;;;;;;;;;5053923;28;19925;-67
2021/05/28 02:23:21;;;;;;;;;;;;;;;;;;5054058;28;20449;-67
2021/05/28 02:25:47;;;;;;;;;;;;;;;;;;5044589;28;19925;-68
2021/05/28 02:28:14;;;;;;;;;;;;;;;;;;5054523;28;19924;-68
2021/05/28 02:30:40;;;;;;;;;;;;;;;;;;5055567;28;20351;-68
2021/05/28 02:33:06;;;;;;;;;;;;;;;;;;5046684;28;19925;-69
2021/05/28 02:35:33;;;;;;;;;;;;;;;;;;5055159;28;19929;-68
2021/05/28 02:37:59;;;;;;;;;;;;;;;;;;5054650;28;19925;-69
2021/05/28 02:40:26;;;;;;;;;;;;;;;;;;5055283;28;20350;-68
2021/05/28 02:42:52;;;;;;;;;;;;;;;;;;5049388;28;19924;-68
2021/05/28 02:45:19;;;;;;;;;;;;;;;;;;5053559;28;19925;-67
2021/05/28 02:47:45;;;;;;;;;;;;;;;;;;5053934;28;19932;-68
2021/05/28 02:50:12;;;;;;;;;;;;;;;;;;5084088;22;20024;-68
2021/05/28 02:52:38;;;;;;;;;;;;;;;;;;5073296;28;19929;-68
2021/05/28 02:55:05;;;;;;;;;;;;;;;;;;5075000;28;19936;-68
2021/05/28 02:57:31;;;;;;;;;;;;;;;;;;5078010;28;19931;-67
2021/05/28 02:59:58;;;;;;;;;;;;;;;;;;5071296;28;19978;-67
2021/05/28 03:02:24;;;;;;;;;;;;;;;;;;5050342;28;19935;-68
2021/05/28 03:04:51;;;;;;;;;;;;;;;;;;5070225;28;19928;-67
2021/05/28 03:07:17;;;;;;;;;;;;;;;;;;5063651;28;19986;-67
2021/05/28 03:09:43;;;;;;;;;;;;;;;;;;5065074;28;19925;-68
2021/05/28 03:12:10;;;;;;;;;;;;;;;;;;5053929;28;19925;-67
2021/05/28 03:14:36;;;;;;;;;;;;;;;;;;5071384;28;19931;-67
2021/05/28 03:17:03;;;;;;;;;;;;;;;;;;5048663;28;20316;-67
2021/05/28 03:19:33;;;;;;;;;;;;;;;;;;5063813;28;19928;-66
2021/05/28 03:24:44;;;;;;;;;;;;;;;;;;5072252;28;19962;-67
2021/05/28 03:27:11;;;;;;;;;;;;;;;;;;5061206;28;19932;-69
2021/05/28 03:29:37;;;;;;;;;;;;;;;;;;5066536;28;19924;-67
2021/05/28 03:32:04;;;;;;;;;;;;;;;;;;5056431;28;19929;-68
2021/05/28 03:34:30;;;;;;;;;;;;;;;;;;5052586;28;19925;-67
2021/05/28 03:36:59;;;;;;;;;;;;;;;;;;5070299;28;19925;-67
2021/05/28 03:39:25;;;;;;;;;;;;;;;;;;5055119;28;19956;-67
2021/05/28 03:41:52;;;;;;;;;;;;;;;;;;5052191;28;20407;-67
2021/05/28 03:44:18;;;;;;;;;;;;;;;;;;5053807;28;19929;-66
2021/05/28 03:46:45;;;;;;;;;;;;;;;;;;5055301;28;19925;-66
2021/05/28 03:49:11;;;;;;;;;;;;;;;;;;5053276;28;19925;-68
2021/05/28 03:51:38;;;;;;;;;;;;;;;;;;5056977;28;19993;-68
2021/05/28 03:54:04;;;;;;;;;;;;;;;;;;5054556;28;19974;-68
2021/05/28 03:56:30;;;;;;;;;;;;;;;;;;5052092;28;19932;-67
2021/05/28 03:58:57;;;;;;;;;;;;;;;;;;5055878;28;19933;-67
2021/05/28 04:01:23;;;;;;;;;;;;;;;;;;5067747;28;20455;-67
2021/05/28 04:03:50;;;;;;;;;;;;;;;;;;5054602;28;19932;-68
2021/05/28 04:06:16;;;;;;;;;;;;;;;;;;5062304;28;19925;-67
2021/05/28 04:08:43;;;;;;;;;;;;;;;;;;5056788;28;20288;-68
2021/05/28 04:11:09;;;;;;;;;;;;;;;;;;5062749;28;19931;-68
2021/05/28 04:13:36;;;;;;;;;;;;;;;;;;5067213;28;20016;-67
2021/05/28 04:16:02;;;;;;;;;;;;;;;;;;5057389;28;19950;-68
2021/05/28 04:18:29;;;;;;;;;;;;;;;;;;5058928;28;19932;-67
2021/05/28 04:20:55;;;;;;;;;;;;;;;;;;5069083;28;19925;-67
2021/05/28 04:23:22;;;;;;;;;;;;;;;;;;5057833;28;19933;-68
2021/05/28 04:25:48;;;;;;;;;;;;;;;;;;5048960;28;19996;-67
2021/05/28 04:28:15;;;;;;;;;;;;;;;;;;5053137;28;19931;-68
2021/05/28 04:30:41;;;;;;;;;;;;;;;;;;5064665;28;19924;-67
2021/05/28 04:33:08;;;;;;;;;;;;;;;;;;5070402;28;19924;-67
2021/05/28 04:35:34;;;;;;;;;;;;;;;;;;5071764;28;19955;-66
2021/05/28 04:38:01;;;;;;;;;;;;;;;;;;5049284;28;19969;-66
2021/05/28 04:40:28;;;;;;;;;;;;;;;;;;5057435;28;19925;-67
2021/05/28 04:42:55;;;;;;;;;;;;;;;;;;5060460;28;20292;-68
2021/05/28 04:45:21;;;;;;;;;;;;;;;;;;5051846;28;19924;-68
2021/05/28 04:47:48;;;;;;;;;;;;;;;;;;5052398;28;20288;-68
2021/05/28 04:50:14;;;;;;;;;;;;;;;;;;5052441;28;20074;-67
2021/05/28 04:52:42;;;;;;;;;;;;;;;;;;5052987;28;19970;-68
2021/05/28 04:55:08;;;;;;;;;;;;;;;;;;5059140;28;20335;-66
2021/05/28 04:57:35;;;;;;;;;;;;;;;;;;5061070;28;19925;-68
2021/05/28 05:00:01;;;;;;;;;;;;;;;;;;5065864;28;20255;-67
2021/05/28 05:02:28;;;;;;;;;;;;;;;;;;5063545;28;20004;-67
2021/05/28 05:04:54;;;;;;;;;;;;;;;;;;5055875;28;19932;-67
2021/05/28 05:07:21;;;;;;;;;;;;;;;;;;5065704;28;19925;-68
2021/05/28 05:09:47;;;;;;;;;;;;;;;;;;5067198;28;19924;-68
2021/05/28 05:12:14;;;;;;;;;;;;;;;;;;5061734;28;19928;-67
2021/05/28 05:14:40;;;;;;;;;;;;;;;;;;5044855;28;19925;-67
2021/05/28 05:17:06;;;;;;;;;;;;;;;;;;5054646;28;20019;-69
2021/05/28 05:19:33;;;;;;;;;;;;;;;;;;5056138;28;19924;-67
2021/05/28 05:21:59;;;;;;;;;;;;;;;;;;5051232;28;19931;-67
2021/05/28 05:24:26;;;;;;;;;;;;;;;;;;5052035;28;19925;-67
2021/05/28 05:26:52;;;;;;;;;;;;;;;;;;5054485;28;19946;-67
2021/05/28 05:29:19;;;;;;;;;;;;;;;;;;5060040;28;19924;-69
2021/05/28 05:31:45;;;;;;;;;;;;;;;;;;5064616;28;19964;-67
2021/05/28 05:34:12;;;;;;;;;;;;;;;;;;5057865;28;19929;-66
2021/05/28 05:36:40;;;;;;;;;;;;;;;;;;5051399;28;20327;-67
2021/05/28 05:39:06;;;;;;;;;;;;;;;;;;5045555;28;19928;-67
2021/05/28 05:41:33;;;;;;;;;;;;;;;;;;5053159;28;19925;-68
2021/05/28 05:43:59;;;;;;;;;;;;;;;;;;5052985;28;19931;-67
2021/05/28 05:46:26;;;;;;;;;;;;;;;;;;5049481;28;19955;-69
2021/05/28 05:48:52;;;;;;;;;;;;;;;;;;5053220;28;19924;-68
2021/05/28 05:51:19;;;;;;;;;;;;;;;;;;5053052;28;19924;-68
2021/05/28 05:53:45;;;;;;;;;;;;;;;;;;5049324;28;19924;-67
2021/05/28 05:56:12;;;;;;;;;;;;;;;;;;5053926;28;19924;-67
2021/05/28 05:58:40;;;;;;;;;;;;;;;;;;5053698;28;20023;-67
2021/05/28 06:01:07;;;;;;;;;;;;;;;;;;5051238;28;20364;-67
2021/05/28 06:03:33;;;;;;;;;;;;;;;;;;5053335;28;19931;-68
2021/05/28 06:06:00;;;;;;;;;;;;;;;;;;5053599;28;20311;-67
2021/05/28 06:08:26;;;;;;;;;;;;;;;;;;5053558;28;19929;-68
2021/05/28 06:10:53;;;;;;;;;;;;;;;;;;5050568;28;19925;-67
2021/05/28 06:13:19;;;;;;;;;;;;;;;;;;5051051;28;20512;-66
2021/05/28 06:15:46;;;;;;;;;;;;;;;;;;5050536;28;19925;-68
2021/05/28 06:18:12;;;;;;;;;;;;;;;;;;5051246;28;19947;-68
2021/05/28 06:20:39;;;;;;;;;;;;;;;;;;5050803;28;19929;-68
2021/05/28 06:23:05;;;;;;;;;;;;;;;;;;5047759;28;20402;-68
2021/05/28 06:25:32;;;;;;;;;;;;;;;;;;5050052;28;20058;-66
2021/05/28 06:27:58;;;;;;;;;;;;;;;;;;5052506;28;19983;-66
2021/05/28 06:30:25;;;;;;;;;;;;;;;;;;5051424;28;19937;-66
2021/05/28 06:32:51;;;;;;;;;;;;;;;;;;5052981;28;19932;-66
2021/05/28 06:35:18;;;;;;;;;;;;;;;;;;5050715;28;19931;-67
2021/05/28 06:37:44;;;;;;;;;;;;;;;;;;5048778;28;19943;-68
2021/05/28 06:40:11;;;;;;;;;;;;;;;;;;5049482;28;19925;-67
2021/05/28 06:42:38;;;;;;;;;;;;;;;;;;5053606;28;19968;-67
2021/05/28 06:45:04;;;;;;;;;;;;;;;;;;5052640;28;19953;-67
2021/05/28 06:47:31;;;;;;;;;;;;;;;;;;5046633;28;19963;-67
2021/05/28 06:49:57;;;;;;;;;;;;;;;;;;5046610;28;20393;-67
2021/05/28 06:52:24;;;;;;;;;;;;;;;;;;5049956;28;19928;-67
2021/05/28 06:54:50;;;;;;;;;;;;;;;;;;5051454;28;19932;-68
2021/05/28 06:57:16;;;;;;;;;;;;;;;;;;5049297;28;20281;-68
2021/05/28 06:59:43;;;;;;;;;;;;;;;;;;5051525;28;20055;-68
2021/05/28 07:02:10;;;;;;;;;;;;;;;;;;5051044;28;20070;-68
2021/05/28 07:04:36;;;;;;;;;;;;;;;;;;5050211;28;19932;-67
2021/05/28 07:07:03;;;;;;;;;;;;;;;;;;5053645;28;19979;-67
2021/05/28 07:09:29;;;;;;;;;;;;;;;;;;5047285;28;19925;-67
2021/05/28 07:11:56;;;;;;;;;;;;;;;;;;5046617;28;20016;-67
2021/05/28 07:14:22;;;;;;;;;;;;;;;;;;5052791;28;19981;-67
2021/05/28 07:16:50;;;;;;;;;;;;;;;;;;5043351;28;20066;-67
2021/05/28 07:19:16;;;;;;;;;;;;;;;;;;5047503;28;20388;-66
2021/05/28 07:21:43;;;;;;;;;;;;;;;;;;5043615;28;19929;-67
2021/05/28 07:24:09;;;;;;;;;;;;;;;;;;5045812;28;19940;-68
2021/05/28 07:26:36;;;;;;;;;;;;;;;;;;5044531;28;20296;-66
2021/05/28 07:29:02;;;;;;;;;;;;;;;;;;5049891;28;20123;-66
2021/05/28 07:31:33;;;;;;;;;;;;;;;;;;5044664;28;19928;-67
2021/05/28 07:34:00;;;;;;;;;;;;;;;;;;5044285;28;20355;-67
2021/05/28 07:36:26;;;;;;;;;;;;;;;;;;5046984;28;19978;-66
2021/05/28 07:41:34;;;;;;;;;;;;;;;;;;5041910;28;19931;-67
2021/05/28 07:44:01;;;;;;;;;;;;;;;;;;5045736;28;19928;-67
2021/05/28 07:46:27;;;;;;;;;;;;;;;;;;5042901;28;19935;-68
2021/05/28 07:48:54;;;;;;;;;;;;;;;;;;5044804;28;19932;-67
2021/05/28 07:51:20;;;;;;;;;;;;;;;;;;5044835;28;19924;-68
2021/05/28 07:53:47;;;;;;;;;;;;;;;;;;5046781;28;19925;-67
2021/05/28 07:56:13;;;;;;;;;;;;;;;;;;5050703;28;19999;-67
2021/05/28 07:58:41;;;;;;;;;;;;;;;;;;5053667;28;19978;-68
2021/05/28 08:01:08;;;;;;;;;;;;;;;;;;5041506;28;19933;-67
2021/05/28 08:03:34;;;;;;;;;;;;;;;;;;5046825;28;19932;-66
2021/05/28 08:06:01;;;;;;;;;;;;;;;;;;5047464;28;19925;-67
2021/05/28 08:08:28;;;;;;;;;;;;;;;;;;5048450;28;19928;-65
2021/05/28 08:10:55;;;;;;;;;;;;;;;;;;5042613;28;19975;-67
2021/05/28 08:13:21;;;;;;;;;;;;;;;;;;5048647;28;19925;-65
2021/05/28 08:15:48;;;;;;;;;;;;;;;;;;5046278;28;19925;-66
2021/05/28 08:18:15;;;;;;;;;;;;;;;;;;5051468;28;19925;-65
2021/05/28 08:20:42;;;;;;;;;;;;;;;;;;5025573;28;20443;-66
2021/05/28 08:23:09;;;;;;;;;;;;;;;;;;5044093;28;19951;-65
2021/05/28 08:25:35;;;;;;;;;;;;;;;;;;5048633;28;20030;-65
2021/05/28 08:28:02;;;;;;;;;;;;;;;;;;5045832;28;19924;-65
2021/05/28 08:30:28;;;;;;;;;;;;;;;;;;5042829;28;20309;-66
2021/05/28 08:32:55;;;;;;;;;;;;;;;;;;5043565;28;19932;-65
2021/05/28 08:35:21;;;;;;;;;;;;;;;;;;5047718;28;20474;-66
2021/05/28 08:37:48;;;;;;;;;;;;;;;;;;5048773;28;19939;-66
2021/05/28 08:40:15;;;;;;;;;;;;;;;;;;5053410;28;20586;-66
2021/05/28 08:42:42;;;;;;;;;;;;;;;;;;5046131;28;19932;-66
2021/05/28 08:45:08;;;;;;;;;;;;;;;;;;5046099;28;20507;-65
2021/05/28 08:47:35;;;;;;;;;;;;;;;;;;5044173;28;19929;-67
2021/05/28 08:50:01;;;;;;;;;;;;;;;;;;5044094;28;20300;-65
2021/05/28 08:52:28;;;;;;;;;;;;;;;;;;5046274;28;19929;-65
2021/05/28 08:54:54;;;;;;;;;;;;;;;;;;5044306;28;20397;-65
2021/05/28 08:57:23;;;;;;;;;;;;;;;;;;5073670;22;19932;-66
2021/05/28 08:59:49;;;;;;;;;;;;;;;;;;5061243;28;19928;-65
2021/05/28 09:02:16;;;;;;;;;;;;;;;;;;5065272;28;19925;-65
2021/05/28 09:04:42;;;;;;;;;;;;;;;;;;5065931;28;19946;-65
2021/05/28 09:07:09;;;;;;;;;;;;;;;;;;5064043;28;19924;-66
2021/05/28 09:09:35;;;;;;;;;;;;;;;;;;5063291;28;19933;-66
2021/05/28 09:12:02;;;;;;;;;;;;;;;;;;5069068;28;19924;-66
2021/05/28 09:14:28;;;;;;;;;;;;;;;;;;5067764;28;20010;-66
2021/05/28 09:16:55;;;;;;;;;;;;;;;;;;5064115;28;19924;-66
2021/05/28 09:19:22;;;;;;;;;;;;;;;;;;5066948;28;19929;-65
2021/05/28 09:21:49;;;;;;;;;;;;;;;;;;5067849;28;19955;-65
2021/05/28 09:24:15;;;;;;;;;;;;;;;;;;5069532;28;19925;-65
2021/05/28 09:26:41;;;;;;;;;;;;;;;;;;5067388;28;19925;-65
2021/05/28 09:29:10;;;;;;;;;;;;;;;;;;5067434;28;20412;-65
2021/05/28 09:31:37;;;;;;;;;;;;;;;;;;5069630;28;19925;-65
2021/05/28 09:34:03;;;;;;;;;;;;;;;;;;5066711;28;19931;-65
2021/05/28 09:36:32;;;;;;;;;;;;;;;;;;5066481;28;20006;-66
2021/05/28 09:38:58;;;;;;;;;;;;;;;;;;5066061;28;19929;-65
2021/05/28 09:41:24;;;;;;;;;;;;;;;;;;5066494;28;20300;-65
2021/05/28 09:43:51;;;;;;;;;;;;;;;;;;5064429;28;19928;-65
2021/05/28 09:46:17;;;;;;;;;;;;;;;;;;5066380;28;19932;-65
2021/05/28 09:48:44;;;;;;;;;;;;;;;;;;5068480;28;19924;-65
2021/05/28 09:51:10;;;;;;;;;;;;;;;;;;5065602;28;19925;-65
2021/05/28 09:53:39;;;;;;;;;;;;;;;;;;5070922;28;19956;-65
2021/05/28 09:56:05;;;;;;;;;;;;;;;;;;5059567;28;20384;-65
2021/05/28 09:58:32;;;;;;;;;;;;;;;;;;5069002;28;20011;-66
2021/05/28 10:00:58;;;;;;;;;;;;;;;;;;5065212;28;20096;-65
2021/05/28 10:03:26;;;;;;;;;;;;;;;;;;5063429;28;20019;-66
2021/05/28 10:05:53;;;;;;;;;;;;;;;;;;5067882;28;19986;-65
2021/05/28 10:08:19;;;;;;;;;;;;;;;;;;5067266;28;19925;-65
2021/05/28 10:10:45;;;;;;;;;;;;;;;;;;5066899;28;19925;-66
2021/05/28 10:13:12;;;;;;;;;;;;;;;;;;5066663;28;20322;-66
2021/05/28 10:15:39;;;;;;;;;;;;;;;;;;5063692;28;19928;-64
2021/05/28 10:18:05;;;;;;;;;;;;;;;;;;5067154;28;20003;-65
2021/05/28 10:20:32;;;;;;;;;;;;;;;;;;5064378;28;20365;-64
2021/05/28 10:22:58;;;;;;;;;;;;;;;;;;5064470;28;20022;-64
2021/05/28 10:25:25;;;;;;;;;;;;;;;;;;5064559;28;20003;-64
2021/05/28 10:27:51;;;;;;;;;;;;;;;;;;5065543;28;19925;-64
2021/05/28 10:30:19;;;;;;;;;;;;;;;;;;5063485;28;19928;-64
2021/05/28 10:32:46;;;;;;;;;;;;;;;;;;5067200;28;20792;-65
2021/05/28 10:35:13;;;;;;;;;;;;;;;;;;5065363;28;19925;-65
2021/05/28 10:37:39;;;;;;;;;;;;;;;;;;5064829;28;20367;-65
2021/05/28 10:40:06;;;;;;;;;;;;;;;;;;5065341;28;19925;-64
2021/05/28 10:42:32;;;;;;;;;;;;;;;;;;5063686;28;19924;-64
2021/05/28 10:45:00;;;;;;;;;;;;;;;;;;5067351;28;19935;-64
2021/05/28 10:47:26;;;;;;;;;;;;;;;;;;5065677;28;19971;-64
2021/05/28 10:49:53;;;;;;;;;;;;;;;;;;5066236;28;19929;-64
2021/05/28 10:52:19;;;;;;;;;;;;;;;;;;5065835;28;20395;-66
2021/05/28 10:54:46;;;;;;;;;;;;;;;;;;5067993;28;19932;-66
2021/05/28 10:57:12;;;;;;;;;;;;;;;;;;5064094;28;19925;-66
2021/05/28 10:59:38;;;;;;;;;;;;;;;;;;5065326;28;19973;-66
2021/05/28 11:02:05;;;;;;;;;;;;;;;;;;5066847;28;19924;-66
2021/05/28 11:04:31;;;;;;;;;;;;;;;;;;5065852;28;19929;-66
2021/05/28 11:06:59;;;;;;;;;;;;;;;;;;5070040;28;20006;-66
2021/05/28 11:09:25;;;;;;;;;;;;;;;;;;5064087;28;19924;-66
2021/05/28 11:11:52;;;;;;;;;;;;;;;;;;5067518;28;19925;-66
2021/05/28 11:14:19;;;;;;;;;;;;;;;;;;5065636;28;19924;-66
2021/05/28 11:16:45;;;;;;;;;;;;;;;;;;5065414;28;19924;-65
2021/05/28 11:19:12;;;;;;;;;;;;;;;;;;5066775;28;20330;-65
2021/05/28 11:21:38;;;;;;;;;;;;;;;;;;5066032;28;19925;-66
2021/05/28 11:24:05;;;;;;;;;;;;;;;;;;5065278;28;19931;-66
2021/05/28 11:26:31;;;;;;;;;;;;;;;;;;5064622;28;20369;-65
2021/05/28 11:28:58;;;;;;;;;;;;;;;;;;5063165;28;19932;-65
2021/05/28 11:31:24;;;;;;;;;;;;;;;;;;5063694;28;19931;-65
2021/05/28 11:33:51;;;;;;;;;;;;;;;;;;5063392;28;19929;-65
2021/05/28 11:36:17;;;;;;;;;;;;;;;;;;5061434;28;20358;-65
2021/05/28 11:38:44;;;;;;;;;;;;;;;;;;5064692;28;19928;-67
2021/05/28 11:41:10;;;;;;;;;;;;;;;;;;5066259;28;19928;-66
2021/05/28 11:43:37;;;;;;;;;;;;;;;;;;5062487;28;19925;-65
2021/05/28 11:46:03;;;;;;;;;;;;;;;;;;5064532;28;19967;-65
2021/05/28 11:48:30;;;;;;;;;;;;;;;;;;5066089;28;19974;-65
2021/05/28 11:50:56;;;;;;;;;;;;;;;;;;5062801;28;19931;-66
2021/05/28 11:53:23;;;;;;;;;;;;;;;;;;5067540;28;20349;-66
2021/05/28 11:55:49;;;;;;;;;;;;;;;;;;5066045;28;20015;-66
2021/05/28 11:58:16;;;;;;;;;;;;;;;;;;5065551;28;20336;-66
2021/05/28 12:00:42;;;;;;;;;;;;;;;;;;5063888;28;19970;-66
2021/05/28 12:03:09;;;;;;;;;;;;;;;;;;5063172;28;19925;-65
2021/05/28 12:05:36;;;;;;;;;;;;;;;;;;5064945;28;19925;-65
2021/05/28 12:08:03;;;;;;;;;;;;;;;;;;5068417;28;19932;-66
2021/05/28 12:10:29;;;;;;;;;;;;;;;;;;5063538;28;20015;-65
2021/05/28 12:12:56;;;;;;;;;;;;;;;;;;5066008;28;20362;-65
2021/05/28 12:15:22;;;;;;;;;;;;;;;;;;5064740;28;19939;-66
2021/05/28 12:17:49;;;;;;;;;;;;;;;;;;5066633;28;20357;-65
2021/05/28 12:20:15;;;;;;;;;;;;;;;;;;5061908;28;19925;-66
2021/05/28 12:22:42;;;;;;;;;;;;;;;;;;5065308;28;19994;-66
2021/05/28 12:25:08;;;;;;;;;;;;;;;;;;5065028;28;19955;-66
2021/05/28 12:27:35;;;;;;;;;;;;;;;;;;5064716;28;19947;-66
2021/05/28 12:30:01;;;;;;;;;;;;;;;;;;5063189;28;19930;-66
2021/05/28 12:32:28;;;;;;;;;;;;;;;;;;5060835;28;19947;-66
2021/05/28 12:34:54;;;;;;;;;;;;;;;;;;5064375;28;19929;-66
2021/05/28 12:37:21;;;;;;;;;;;;;;;;;;5063095;28;19929;-66
2021/05/28 12:39:47;;;;;;;;;;;;;;;;;;5063769;28;20016;-66
2021/05/28 12:42:14;;;;;;;;;;;;;;;;;;5061043;28;19935;-67
2021/05/28 12:44:40;;;;;;;;;;;;;;;;;;5064426;28;20019;-65
2021/05/28 12:47:07;;;;;;;;;;;;;;;;;;5063138;28;20123;-65
2021/05/28 12:49:33;;;;;;;;;;;;;;;;;;5062482;28;19939;-65
2021/05/28 12:52:01;;;;;;;;;;;;;;;;;;5064558;28;19925;-66
2021/05/28 12:54:27;;;;;;;;;;;;;;;;;;5063729;28;19932;-66
2021/05/28 12:56:56;;;;;;;;;;;;;;;;;;5062809;28;20292;-66
2021/05/28 12:59:23;;;;;;;;;;;;;;;;;;5062180;28;19930;-66
2021/05/28 13:01:49;;;;;;;;;;;;;;;;;;5065526;28;19925;-66
2021/05/28 13:04:16;;;;;;;;;;;;;;;;;;5065900;28;20300;-66
2021/05/28 13:06:42;;;;;;;;;;;;;;;;;;5065674;28;19932;-67
2021/05/28 13:09:09;;;;;;;;;;;;;;;;;;5060865;28;19924;-66
2021/05/28 13:11:35;;;;;;;;;;;;;;;;;;5066572;28;19925;-66
2021/05/28 13:14:02;;;;;;;;;;;;;;;;;;5061957;28;19925;-67
2021/05/28 13:16:28;;;;;;;;;;;;;;;;;;5061237;28;20404;-67
2021/05/28 13:18:55;;;;;;;;;;;;;;;;;;5061818;28;19931;-66
2021/05/28 13:21:21;;;;;;;;;;;;;;;;;;5064085;28;19925;-67
2021/05/28 13:23:48;;;;;;;;;;;;;;;;;;5061001;28;19932;-67
2021/05/28 13:26:14;;;;;;;;;;;;;;;;;;5062984;28;19968;-67
2021/05/28 13:28:41;;;;;;;;;;;;;;;;;;5061369;28;19928;-67
2021/05/28 13:31:07;;;;;;;;;;;;;;;;;;5062382;28;19933;-67
2021/05/28 13:33:37;;;;;;;;;;;;;;;;;;5060095;28;20384;-67
2021/05/28 13:36:03;;;;;;;;;;;;;;;;;;5065287;28;19924;-67
2021/05/28 13:38:30;;;;;;;;;;;;;;;;;;5063508;28;20342;-67
2021/05/28 13:40:57;;;;;;;;;;;;;;;;;;5060312;28;20237;-66
2021/05/28 13:43:24;;;;;;;;;;;;;;;;;;5062145;28;19939;-66
2021/05/28 13:45:51;;;;;;;;;;;;;;;;;;5060314;28;19929;-66
2021/05/28 13:48:17;;;;;;;;;;;;;;;;;;5061759;28;20422;-66
2021/05/28 13:50:44;;;;;;;;;;;;;;;;;;5061971;28;19936;-66
2021/05/28 13:53:10;;;;;;;;;;;;;;;;;;5062376;28;19937;-66
2021/05/28 13:55:37;;;;;;;;;;;;;;;;;;5064903;28;20323;-66
2021/05/28 13:58:03;;;;;;;;;;;;;;;;;;5066274;28;19924;-66
2021/05/28 14:00:30;;;;;;;;;;;;;;;;;;5065573;28;20003;-65
2021/05/28 14:02:56;;;;;;;;;;;;;;;;;;5063378;28;19924;-66
2021/05/28 14:05:23;;;;;;;;;;;;;;;;;;5072408;28;19931;-66
2021/05/28 14:07:49;;;;;;;;;;;;;;;;;;5072553;28;19932;-66
2021/05/28 14:10:16;;;;;;;;;;;;;;;;;;5069942;28;20389;-66
2021/05/28 14:12:42;;;;;;;;;;;;;;;;;;5054613;28;20024;-66
2021/05/28 14:15:09;;;;;;;;;;;;;;;;;;5055398;28;19924;-66
2021/05/28 14:17:37;;;;;;;;;;;;;;;;;;5056637;28;19970;-66
2021/05/28 14:20:07;;;;;;;;;;;;;;;;;;5074099;28;19979;-66
2021/05/28 14:22:33;;;;;;;;;;;;;;;;;;5074047;28;19971;-66
2021/05/28 14:25:00;;;;;;;;;;;;;;;;;;5073943;28;19977;-66
2021/05/28 14:27:26;;;;;;;;;;;;;;;;;;5067439;28;20015;-66
2021/05/28 14:29:53;;;;;;;;;;;;;;;;;;5073649;28;20003;-67
2021/05/28 14:32:21;;;;;;;;;;;;;;;;;;5055557;28;19935;-67
2021/05/28 14:34:48;;;;;;;;;;;;;;;;;;5055425;28;19970;-67
2021/05/28 14:37:14;;;;;;;;;;;;;;;;;;5073974;28;20391;-67
2021/05/28 14:39:41;;;;;;;;;;;;;;;;;;5056126;28;20007;-67
2021/05/28 14:42:07;;;;;;;;;;;;;;;;;;5070225;28;20299;-65
2021/05/28 14:44:34;;;;;;;;;;;;;;;;;;5073942;28;19924;-66
2021/05/28 14:47:00;;;;;;;;;;;;;;;;;;5073559;28;19931;-66
2021/05/28 14:49:27;;;;;;;;;;;;;;;;;;5073426;28;20014;-66
2021/05/28 14:51:53;;;;;;;;;;;;;;;;;;5073397;28;20330;-66
2021/05/28 14:54:20;;;;;;;;;;;;;;;;;;5073434;28;20031;-66
2021/05/28 14:56:46;;;;;;;;;;;;;;;;;;5073863;28;20230;-65
2021/05/28 14:59:13;;;;;;;;;;;;;;;;;;5071491;28;19925;-65
2021/05/28 15:01:39;;;;;;;;;;;;;;;;;;5074228;28;19925;-66
2021/05/28 15:04:06;;;;;;;;;;;;;;;;;;5074727;28;20380;-66
2021/05/28 15:06:33;;;;;;;;;;;;;;;;;;5073158;28;19942;-66
2021/05/28 15:09:06;;;;;;;;;;;;;;;;;;5071723;28;19929;-66
2021/05/28 15:11:32;;;;;;;;;;;;;;;;;;5067670;28;20006;-63
2021/05/28 15:13:59;;;;;;;;;;;;;;;;;;5073086;28;19935;-64
2021/05/28 15:16:25;;;;;;;;;;;;;;;;;;5073406;28;19929;-65
2021/05/28 15:18:52;;;;;;;;;;;;;;;;;;5073256;28;19929;-65
2021/05/28 15:21:23;;;;;;;;;;;;;;;;;;5073175;28;20008;-65
2021/05/28 15:23:49;;;;;;;;;;;;;;;;;;5072663;28;20390;-65
2021/05/28 15:26:16;;;;;;;;;;;;;;;;;;5066099;28;20450;-65
2021/05/28 15:28:42;;;;;;;;;;;;;;;;;;5072502;28;20464;-65
2021/05/28 15:31:09;;;;;;;;;;;;;;;;;;5072863;28;19970;-65
2021/05/28 15:33:35;;;;;;;;;;;;;;;;;;5072701;28;20011;-65
2021/05/28 15:36:02;;;;;;;;;;;;;;;;;;5072499;28;19970;-65
2021/05/28 15:38:30;;;;;;;;;;;;;;;;;;5070555;28;19994;-65
2021/05/28 15:40:56;;;;;;;;;;;;;;;;;;5066975;28;19924;-65
2021/05/28 15:43:23;;;;;;;;;;;;;;;;;;5070935;28;19930;-65
2021/05/28 15:45:49;;;;;;;;;;;;;;;;;;5071023;28;20402;-65
2021/05/28 15:48:16;;;;;;;;;;;;;;;;;;5052288;28;20011;-65
2021/05/28 15:50:44;;;;;;;;;;;;;;;;;;5059363;28;19924;-65
2021/05/28 15:53:10;;;;;;;;;;;;;;;;;;5072169;28;19928;-65
2021/05/28 15:55:37;;;;;;;;;;;;;;;;;;5071990;28;19929;-65
2021/05/28 15:58:03;;;;;;;;;;;;;;;;;;5072364;28;19925;-65
2021/05/28 16:00:30;;;;;;;;;;;;;;;;;;5071594;28;19928;-65
2021/05/28 16:02:56;;;;;;;;;;;;;;;;;;5064161;28;19931;-65
2021/05/28 16:05:24;;;;;;;;;;;;;;;;;;5071513;28;20205;-65
2021/05/28 16:07:51;;;;;;;;;;;;;;;;;;5072073;28;19924;-65
2021/05/28 16:10:17;;;;;;;;;;;;;;;;;;5056883;28;19975;-65
2021/05/28 16:12:44;;;;;;;;;;;;;;;;;;5051890;28;20384;-65
2021/05/28 16:15:10;;;;;;;;;;;;;;;;;;5065735;28;19976;-65
2021/05/28 16:17:37;;;;;;;;;;;;;;;;;;5071888;28;20011;-65
2021/05/28 16:20:03;;;;;;;;;;;;;;;;;;5071186;28;19924;-65
2021/05/28 16:22:30;;;;;;;;;;;;;;;;;;5065290;28;19935;-66
2021/05/28 16:24:56;;;;;;;;;;;;;;;;;;5061703;28;19935;-65
2021/05/28 16:27:23;;;;;;;;;;;;;;;;;;5066391;28;19925;-65
2021/05/28 16:29:50;;;;;;;;;;;;;;;;;;5070818;28;19978;-65
2021/05/28 16:32:16;;;;;;;;;;;;;;;;;;5071823;28;19967;-66
2021/05/28 16:34:43;;;;;;;;;;;;;;;;;;5054495;28;20011;-65
2021/05/28 16:37:09;;;;;;;;;;;;;;;;;;5051540;28;19925;-65
2021/05/28 16:39:36;;;;;;;;;;;;;;;;;;5051486;28;20388;-65
2021/05/28 16:42:02;;;;;;;;;;;;;;;;;;5070065;28;20303;-65
2021/05/28 16:44:29;;;;;;;;;;;;;;;;;;5071408;28;20011;-65
2021/05/28 16:46:55;;;;;;;;;;;;;;;;;;5070078;28;19931;-65